^^
Grace C. Lehan Memorial Weather Station Historical Data
Daily Summary for January 26, 2022 Units:  Metric    English   Both
Daily Weekly Monthly Yearly
  High: Low: Average:
Temperature: -2.4 °C -9.3 °C -5.7 °C
Dew Point: -9.6 °C -17.1 °C -14 °C
Humidity: 74.8% 33.2% 53%
Wind Speed: 21.4km/h 0km/h 4.8km/h
Wind Gust: 38.6km/h - -
Wind- - NW
Pressure: 1031 hPa 1020.5 hPa -
Precipitation: 0 mm    
 
 
Tabular Data for January 26, 2022
Time Temperature Dew Point Pressure Wind Wind Speed Wind Gust Humidity Rainfall Rate (Hourly) solar
00:04 -3.8 °C -9.6 °C 1020.5 hPa NW 4.5 km/h 25.7 km/h 64% 0 mm 0 W/m2
00:09 -3.8 °C -9.7 °C 1020.5 hPa NW 8 km/h 17.7 km/h 64% 0 mm 0 W/m2
00:14 -3.9 °C -9.7 °C 1020.5 hPa NW 3.1 km/h 17.7 km/h 64% 0 mm 0 W/m2
00:19 -4 °C -9.7 °C 1020.5 hPa NW 1.1 km/h 17.7 km/h 64.4% 0 mm 0 W/m2
00:24 -4.1 °C -9.7 °C 1020.5 hPa NW 1.4 km/h 17.7 km/h 65% 0 mm 0 W/m2
00:29 -4.1 °C -9.7 °C 1020.9 hPa NW 3.1 km/h 17.7 km/h 65% 0 mm 0 W/m2
00:34 -4.2 °C -9.7 °C 1020.5 hPa NW 2.1 km/h 17.7 km/h 65.7% 0 mm 0 W/m2
00:39 -4.3 °C -9.7 °C 1020.9 hPa WNW 1.8 km/h 11.3 km/h 66% 0 mm 0 W/m2
00:44 -4.3 °C -9.7 °C 1020.9 hPa NW 5.8 km/h 19.3 km/h 66.2% 0 mm 0 W/m2
00:49 -4.4 °C -9.7 °C 1020.5 hPa NW 5.6 km/h 19.3 km/h 66.8% 0 mm 0 W/m2
00:54 -4.4 °C -9.6 °C 1020.9 hPa NW 5.6 km/h 19.3 km/h 67% 0 mm 0 W/m2
00:59 -4.5 °C -9.7 °C 1020.9 hPa NNW 1.4 km/h 19.3 km/h 67% 0 mm 0 W/m2
01:04 -4.5 °C -9.7 °C 1020.9 hPa NW 3.4 km/h 19.3 km/h 67% 0 mm 0 W/m2
01:09 -4.6 °C -9.8 °C 1020.9 hPa NW 1.1 km/h 16.1 km/h 67% 0 mm 0 W/m2
01:14 -4.7 °C -9.7 °C 1020.9 hPa WNW 2.3 km/h 16.1 km/h 67.5% 0 mm 0 W/m2
01:19 -4.7 °C -9.7 °C 1020.9 hPa WNW 2.3 km/h 16.1 km/h 68% 0 mm 0 W/m2
01:24 -4.8 °C -9.8 °C 1020.9 hPa WNW 2.9 km/h 16.1 km/h 68% 0 mm 0 W/m2
01:29 -4.8 °C -9.8 °C 1020.9 hPa WNW 1.4 km/h 16.1 km/h 68% 0 mm 0 W/m2
01:34 -4.8 °C -9.8 °C 1020.9 hPa WNW 1.3 km/h 16.1 km/h 68% 0 mm 0 W/m2
01:39 -4.9 °C -9.8 °C 1020.9 hPa WNW 0.3 km/h 9.7 km/h 68.7% 0 mm 0 W/m2
01:44 -4.9 °C -9.8 °C 1020.9 hPa Calm   9.7 km/h 69% 0 mm 0 W/m2
01:49 -5 °C -9.8 °C 1021.2 hPa WNW 0.3 km/h 9.7 km/h 69% 0 mm 0 W/m2
01:54 -5.1 °C -9.9 °C 1021.2 hPa WNW 0.8 km/h 9.7 km/h 69% 0 mm 0 W/m2
01:59 -5.1 °C -9.9 °C 1021.2 hPa WNW 0.3 km/h 9.7 km/h 69% 0 mm 0 W/m2
02:04 -5.2 °C -9.9 °C 1021.2 hPa WNW 0.5 km/h 9.7 km/h 69.1% 0 mm 0 W/m2
02:09 -5.2 °C -9.8 °C 1021.2 hPa WNW 0.5 km/h 4.8 km/h 70% 0 mm 0 W/m2
02:14 -5.3 °C -9.9 °C 1021.6 hPa WNW 0.3 km/h 6.4 km/h 70% 0 mm 0 W/m2
02:19 -5.3 °C -9.9 °C 1021.6 hPa WNW 1 km/h 6.4 km/h 70% 0 mm 0 W/m2
02:24 -5.3 °C -9.9 °C 1021.6 hPa Calm   6.4 km/h 70% 0 mm 0 W/m2
02:29 -5.4 °C -10 °C 1021.6 hPa Calm   6.4 km/h 70.2% 0 mm 0 W/m2
02:34 -5.4 °C -9.9 °C 1021.6 hPa WNW 0.8 km/h 6.4 km/h 70.8% 0 mm 0 W/m2
02:39 -5.5 °C -9.9 °C 1021.6 hPa WNW 1.1 km/h 4.8 km/h 71% 0 mm 0 W/m2
02:44 -5.6 °C -10 °C 1021.6 hPa WNW 3.2 km/h 11.3 km/h 71% 0 mm 0 W/m2
02:49 -5.6 °C -10 °C 1021.9 hPa WNW 0.8 km/h 11.3 km/h 71% 0 mm 0 W/m2
02:54 -5.6 °C -9.9 °C 1021.9 hPa WNW 0.2 km/h 11.3 km/h 71.7% 0 mm 0 W/m2
02:59 -5.7 °C -9.9 °C 1021.9 hPa WNW 0.2 km/h 11.3 km/h 72% 0 mm 0 W/m2
03:04 -5.7 °C -9.9 °C 1021.9 hPa Calm   11.3 km/h 72% 0 mm 0 W/m2
03:09 -5.7 °C -9.9 °C 1021.9 hPa Calm     72% 0 mm 0 W/m2
03:14 -5.7 °C -9.9 °C 1021.9 hPa Calm     72% 0 mm 0 W/m2
03:19 -5.8 °C -10 °C 1021.9 hPa Calm     72% 0 mm 0 W/m2
03:24 -5.8 °C -9.9 °C 1021.9 hPa Calm     72.9% 0 mm 0 W/m2
03:29 -5.8 °C -9.9 °C 1021.9 hPa Calm     73% 0 mm 0 W/m2
03:34 -5.9 °C -9.9 °C 1021.9 hPa Calm     73% 0 mm 0 W/m2
03:39 -5.9 °C -10 °C 1021.9 hPa Calm   3.2 km/h 73% 0 mm 0 W/m2
03:44 -6 °C -10.1 °C 1022.2 hPa Calm   3.2 km/h 73% 0 mm 0 W/m2
03:49 -6.1 °C -10.1 °C 1022.2 hPa Calm   3.2 km/h 73.1% 0 mm 0 W/m2
03:54 -6.1 °C -9.9 °C 1022.2 hPa Calm   3.2 km/h 74% 0 mm 0 W/m2
03:59 -6.2 °C -10 °C 1022.2 hPa Calm   3.2 km/h 74% 0 mm 0 W/m2
04:00 -6.2 °C -10.1 °C 1022.2 hPa Calm   3.2 km/h 74% 0 mm 0 W/m2
04:09 -6.3 °C -10.1 °C 1022.6 hPa Calm     74% 0 mm 0 W/m2
04:14 -6.3 °C -10.2 °C 1022.6 hPa WNW 0.2 km/h 3.2 km/h 74% 0 mm 0 W/m2
04:19 -6.3 °C -10.1 °C 1022.6 hPa NW 1 km/h 6.4 km/h 74.8% 0 mm 0 W/m2
04:24 -6.4 °C -10.2 °C 1022.6 hPa NW 2.3 km/h 6.4 km/h 74.1% 0 mm 0 W/m2
04:29 -6.4 °C -10.4 °C 1022.6 hPa NW 1.9 km/h 8 km/h 73.3% 0 mm 0 W/m2
04:34 -6.4 °C -10.6 °C 1022.6 hPa Calm   8 km/h 72.1% 0 mm 0 W/m2
04:39 -6.4 °C -10.6 °C 1022.6 hPa NW 0.8 km/h 6.4 km/h 72% 0 mm 0 W/m2
04:44 -6.4 °C -10.7 °C 1022.6 hPa Calm   6.4 km/h 72% 0 mm 0 W/m2
04:49 -6.4 °C -10.7 °C 1022.9 hPa Calm   6.4 km/h 72% 0 mm 0 W/m2
04:54 -6.5 °C -10.7 °C 1022.9 hPa Calm   6.4 km/h 72% 0 mm 0 W/m2
04:59 -6.6 °C -10.8 °C 1022.9 hPa NW 2.9 km/h 19.3 km/h 72% 0 mm 0 W/m2
05:04 -6.7 °C -11.1 °C 1022.9 hPa NW 2.4 km/h 20.9 km/h 71% 0 mm 0 W/m2
05:09 -6.7 °C -11.2 °C 1022.9 hPa NNW 1 km/h 20.9 km/h 70% 0 mm 0 W/m2
05:14 -6.7 °C -11.4 °C 1023.2 hPa NW 2.6 km/h 20.9 km/h 69.2% 0 mm 0 W/m2
05:19 -6.7 °C -11.6 °C 1023.2 hPa NW 3.2 km/h 20.9 km/h 68.2% 0 mm 0 W/m2
05:24 -6.7 °C -11.7 °C 1023.6 hPa NW 0.8 km/h 20.9 km/h 67.2% 0 mm 0 W/m2
05:29 -6.7 °C -11.8 °C 1023.6 hPa NW 0.8 km/h 20.9 km/h 67% 0 mm 0 W/m2
05:34 -6.7 °C -11.8 °C 1023.6 hPa NW 2.4 km/h 20.9 km/h 66.9% 0 mm 0 W/m2
05:39 -6.8 °C -12.1 °C 1023.6 hPa NW 4.2 km/h 16.1 km/h 66% 0 mm 0 W/m2
05:44 -6.7 °C -12.2 °C 1023.6 hPa NW 1.6 km/h 16.1 km/h 65.1% 0 mm 0 W/m2
05:49 -6.7 °C -12.1 °C 1023.6 hPa NW 4.2 km/h 16.1 km/h 65.3% 0 mm 0 W/m2
05:54 -6.8 °C -12.2 °C 1023.6 hPa NW 3.5 km/h 17.7 km/h 65% 0 mm 0 W/m2
05:59 -6.8 °C -12.3 °C 1023.6 hPa NW 7.4 km/h 19.3 km/h 64.4% 0 mm 0 W/m2
06:04 -6.7 °C -12.4 °C 1023.9 hPa NW 1.3 km/h 19.3 km/h 64% 0 mm 0 W/m2
06:09 -6.7 °C -12.4 °C 1023.9 hPa NW 1.4 km/h 9.7 km/h 64% 0 mm 0 W/m2
06:14 -6.8 °C -12.4 °C 1023.9 hPa NW 0.6 km/h 9.7 km/h 64% 0 mm 0 W/m2
06:19 -6.8 °C -12.4 °C 1024.3 hPa NW 0.2 km/h 9.7 km/h 64% 0 mm 0 W/m2
06:24 -6.8 °C -12.5 °C 1024.3 hPa NW 0.2 km/h 9.7 km/h 64% 0 mm 0 W/m2
06:29 -6.9 °C -12.5 °C 1024.3 hPa Calm   9.7 km/h 64.4% 0 mm 0 W/m2
06:34 -7 °C -12.4 °C 1024.3 hPa Calm   9.7 km/h 65% 0 mm 0 W/m2
06:39 -7.1 °C -12.4 °C 1024.3 hPa NW 0.8 km/h 4.8 km/h 65.9% 0 mm 0 W/m2
06:44 -7.2 °C -12.4 °C 1024.6 hPa NW 0.8 km/h 6.4 km/h 66.2% 0 mm 0 W/m2
06:49 -7.3 °C -12.3 °C 1024.6 hPa NW 1.8 km/h 9.7 km/h 67% 0 mm 0 W/m2
06:54 -7.3 °C -12.5 °C 1024.6 hPa NW 0.2 km/h 9.7 km/h 66.5% 0 mm 0 W/m2
06:59 -7.4 °C -12.4 °C 1024.6 hPa Calm   9.7 km/h 67% 0 mm 0 W/m2
07:04 -7.4 °C -12.6 °C 1024.6 hPa Calm   9.7 km/h 67% 0 mm 0 W/m2
07:09 -7.6 °C -12.6 °C 1024.6 hPa Calm     67.3% 0 mm 5 W/m2
07:14 -7.6 °C -12.5 °C 1024.6 hPa Calm     68% 0 mm 7 W/m2
07:19 -7.7 °C -12.5 °C 1024.9 hPa Calm     68.3% 0 mm 9 W/m2
07:24 -7.8 °C -12.4 °C 1024.9 hPa Calm     69.2% 0 mm 11 W/m2
07:29 -7.8 °C -12.3 °C 1024.9 hPa Calm     70% 0 mm 16 W/m2
07:34 -7.8 °C -12.3 °C 1024.9 hPa Calm     70% 0 mm 30 W/m2
07:39 -7.8 °C -12.2 °C 1024.9 hPa Calm     71% 0 mm 46 W/m2
07:44 -7.7 °C -12.1 °C 1024.9 hPa Calm     71% 0 mm 46 W/m2
07:49 -7.6 °C -12 °C 1025.3 hPa NW 0.3 km/h 4.8 km/h 70.4% 0 mm 33 W/m2
07:54 -7.4 °C -11.9 °C 1025.3 hPa WNW 2.4 km/h 14.5 km/h 70% 0 mm 30 W/m2
07:59 -7.2 °C -11.9 °C 1025.3 hPa WNW 2.4 km/h 14.5 km/h 69.1% 0 mm 53 W/m2
08:09 -6.8 °C -12.1 °C 1025.3 hPa WNW 4.2 km/h 11.3 km/h 66.5% 0 mm 60 W/m2
08:14 -6.7 °C -12.1 °C 1025.3 hPa NW 2.3 km/h 14.5 km/h 65.2% 0 mm 60 W/m2
08:19 -6.6 °C -12.1 °C 1025.3 hPa WNW 4 km/h 17.7 km/h 64.6% 0 mm 60 W/m2
08:24 -6.4 °C -12.4 °C 1025.3 hPa WNW 7.6 km/h 17.7 km/h 62.5% 0 mm 207 W/m2
08:29 -6.3 °C -12.4 °C 1025.3 hPa WNW 5 km/h 17.7 km/h 62% 0 mm 218 W/m2
08:34 -6 °C -12.3 °C 1025.3 hPa WNW 6.8 km/h 17.7 km/h 60.9% 0 mm 206 W/m2
08:39 -5.7 °C -12.3 °C 1025.3 hPa WNW 5.6 km/h 17.7 km/h 59.5% 0 mm 241 W/m2
08:44 -5.3 °C -12.1 °C 1025.6 hPa WNW 6.6 km/h 17.7 km/h 58.8% 0 mm 279 W/m2
08:49 -5 °C -12.1 °C 1025.6 hPa WNW 5.3 km/h 17.7 km/h 57.4% 0 mm 292 W/m2
08:54 -4.7 °C -11.9 °C 1025.6 hPa West 2.1 km/h 17.7 km/h 56.7% 0 mm 306 W/m2
08:59 -4.3 °C -11.8 °C 1025.6 hPa WNW 6.8 km/h 20.9 km/h 55.7% 0 mm 316 W/m2
09:04 -4.2 °C -12.1 °C 1025.6 hPa WNW 6.9 km/h 20.9 km/h 54% 0 mm 329 W/m2
09:09 -4.1 °C -12.1 °C 1025.6 hPa WNW 5.6 km/h 19.3 km/h 53.5% 0 mm 339 W/m2
09:14 -4 °C -12.2 °C 1026 hPa WNW 5.8 km/h 19.3 km/h 53% 0 mm 348 W/m2
09:19 -3.9 °C -12.2 °C 1026 hPa WNW 4.3 km/h 19.3 km/h 52.5% 0 mm 357 W/m2
09:24 -3.7 °C -12.1 °C 1026 hPa WNW 8.4 km/h 19.3 km/h 52.2% 0 mm 366 W/m2
09:29 -3.6 °C -12.3 °C 1026 hPa NW 5 km/h 19.3 km/h 50.6% 0 mm 374 W/m2
09:34 -3.6 °C -12.7 °C 1026 hPa NW 6.8 km/h 19.3 km/h 49.3% 0 mm 366 W/m2
09:39 -3.7 °C -13.3 °C 1026 hPa NW 13.2 km/h 30.6 km/h 47.4% 0 mm 260 W/m2
09:44 -4.1 °C -13.7 °C 1026.3 hPa NW 11.1 km/h 30.6 km/h 46.7% 0 mm 383 W/m2
09:49 -4.3 °C -14.1 °C 1026.3 hPa NW 11.1 km/h 30.6 km/h 46.1% 0 mm 401 W/m2
09:54 -4.4 °C -14.4 °C 1026.3 hPa WNW 12.7 km/h 30.6 km/h 45.3% 0 mm 388 W/m2
09:59 -4.5 °C -14.5 °C 1026.3 hPa WNW 5.6 km/h 30.6 km/h 45.4% 0 mm 299 W/m2
10:04 -4.5 °C -14.5 °C 1026.3 hPa WNW 10.1 km/h 30.6 km/h 45.6% 0 mm 227 W/m2
10:09 -4.5 °C -14.3 °C 1026.3 hPa NW 6.8 km/h 20.9 km/h 46% 0 mm 290 W/m2
10:14 -4.3 °C -14.1 °C 1026.3 hPa NW 8.4 km/h 20.9 km/h 46.6% 0 mm 457 W/m2
10:19 -4.2 °C -14.6 °C 1026.3 hPa NW 10.9 km/h 24.1 km/h 43.9% 0 mm 457 W/m2
10:24 -4.1 °C -14.8 °C 1026.3 hPa NW 6.3 km/h 24.1 km/h 43% 0 mm 424 W/m2
10:29 -3.9 °C -14.6 °C 1026.3 hPa NW 8.7 km/h 24.1 km/h 43.2% 0 mm 455 W/m2
10:34 -3.7 °C -14.4 °C 1026.3 hPa WNW 7.4 km/h 24.1 km/h 43% 0 mm 501 W/m2
10:39 -3.4 °C -14.2 °C 1026.3 hPa WNW 5.8 km/h 24.1 km/h 42.8% 0 mm 492 W/m2
10:44 -3.2 °C -14.3 °C 1026 hPa WNW 11.3 km/h 24.1 km/h 42% 0 mm 519 W/m2
10:49 -3 °C -14.3 °C 1026.3 hPa NW 10.1 km/h 25.7 km/h 41.4% 0 mm 526 W/m2
10:54 -2.7 °C -14.3 °C 1026.3 hPa NW 6.6 km/h 25.7 km/h 40.5% 0 mm 531 W/m2
10:59 -2.6 °C -14.2 °C 1026 hPa WNW 9.5 km/h 25.7 km/h 40.3% 0 mm 538 W/m2
11:04 -2.5 °C -14.2 °C 1026 hPa WNW 6.4 km/h 25.7 km/h 40.3% 0 mm 538 W/m2
11:09 -2.4 °C -14.1 °C 1025.6 hPa WNW 7.7 km/h 20.9 km/h 40.4% 0 mm 378 W/m2
11:14 -2.4 °C -14.3 °C 1026 hPa NW 5.3 km/h 20.9 km/h 39.3% 0 mm 181 W/m2
11:19 -2.4 °C -14.5 °C 1026 hPa NW 12.2 km/h 30.6 km/h 38.9% 0 mm 207 W/m2
11:24 -2.6 °C -15.1 °C 1026 hPa NW 15.1 km/h 30.6 km/h 37.6% 0 mm 264 W/m2
11:29 -2.9 °C -15.6 °C 1025.6 hPa NW 14.8 km/h 30.6 km/h 36.7% 0 mm 330 W/m2
11:34 -3.1 °C -15.8 °C 1025.6 hPa NW 16.9 km/h 30.6 km/h 36.8% 0 mm 455 W/m2
11:39 -3.3 °C -15.8 °C 1025.6 hPa NW 16.1 km/h 30.6 km/h 37.2% 0 mm 364 W/m2
11:44 -3.3 °C -15.6 °C 1025.6 hPa NW 8 km/h 30.6 km/h 37.9% 0 mm 257 W/m2
11:49 -3.2 °C -15.4 °C 1025.3 hPa NW 16.1 km/h 33.8 km/h 38.4% 0 mm 267 W/m2
11:54 -3.2 °C -15.8 °C 1025.3 hPa NW 10 km/h 33.8 km/h 37% 0 mm 102 W/m2
11:59 -3.2 °C -15.6 °C 1025.3 hPa NW 10.8 km/h 33.8 km/h 37.6% 0 mm 188 W/m2
12:00 -3.1 °C -15.4 °C 1024.9 hPa WNW 12.1 km/h 33.8 km/h 38% 0 mm 165 W/m2
12:09 -3.1 °C -15.8 °C 1025.3 hPa NW 15.9 km/h 29 km/h 36.7% 0 mm 149 W/m2
12:14 -3.1 °C -16.1 °C 1025.3 hPa WNW 18.7 km/h 29 km/h 35.8% 0 mm 179 W/m2
12:19 -3.2 °C -16.3 °C 1024.9 hPa WNW 15.3 km/h 32.2 km/h 35.7% 0 mm 104 W/m2
12:24 -3.2 °C -16.2 °C 1024.9 hPa WNW 13.4 km/h 32.2 km/h 36% 0 mm 167 W/m2
12:29 -3.1 °C -15.8 °C 1024.9 hPa NW 10.9 km/h 32.2 km/h 36.7% 0 mm 204 W/m2
12:34 -2.8 °C -15.4 °C 1024.9 hPa WNW 10.3 km/h 32.2 km/h 37.3% 0 mm 102 W/m2
12:39 -2.7 °C -15.7 °C 1024.9 hPa WNW 15.1 km/h 30.6 km/h 36% 0 mm 146 W/m2
12:44 -2.8 °C -16.2 °C 1024.9 hPa NW 15.4 km/h 30.6 km/h 34.8% 0 mm 146 W/m2
12:49 -2.8 °C -16.3 °C 1024.9 hPa NW 14.3 km/h 30.6 km/h 34.6% 0 mm 239 W/m2
12:54 -2.9 °C -16.2 °C 1024.9 hPa WNW 13 km/h 30.6 km/h 35% 0 mm 260 W/m2
12:59 -2.9 °C -16.2 °C 1024.9 hPa NW 15.3 km/h 32.2 km/h 35% 0 mm 221 W/m2
13:04 -3.1 °C -16.4 °C 1024.9 hPa NW 15.3 km/h 32.2 km/h 34.8% 0 mm 174 W/m2
13:09 -3.2 °C -16.4 °C 1024.9 hPa WNW 10.5 km/h 29 km/h 35.3% 0 mm 185 W/m2
13:14 -3.2 °C -16.3 °C 1024.9 hPa NW 10.5 km/h 29 km/h 35.3% 0 mm 104 W/m2
13:19 -3.1 °C -16.1 °C 1024.9 hPa NW 13.5 km/h 33.8 km/h 35.8% 0 mm 116 W/m2
13:24 -3 °C -16.5 °C 1024.9 hPa WNW 19.8 km/h 35.4 km/h 34.4% 0 mm 163 W/m2
13:29 -3.1 °C -16.6 °C 1024.9 hPa NW 12.2 km/h 35.4 km/h 34.4% 0 mm 202 W/m2
13:34 -3.1 °C -16.4 °C 1024.9 hPa NW 14 km/h 35.4 km/h 35% 0 mm 179 W/m2
13:39 -3.1 °C -16.4 °C 1024.9 hPa NNW 6.1 km/h 25.7 km/h 35% 0 mm 40 W/m2
13:44 -3 °C -16.4 °C 1024.9 hPa NW 14.3 km/h 25.7 km/h 34.8% 0 mm 40 W/m2
13:49 -3 °C -16.8 °C 1024.9 hPa WNW 20.4 km/h 32.2 km/h 33.7% 0 mm 174 W/m2
13:54 -3.1 °C -17 °C 1024.9 hPa NW 14.3 km/h 32.2 km/h 33.2% 0 mm 202 W/m2
13:59 -3.1 °C -16.8 °C 1024.9 hPa NW 15 km/h 32.2 km/h 34% 0 mm 287 W/m2
14:04 -3.2 °C -17.1 °C 1024.9 hPa NW 11.4 km/h 38.6 km/h 33.3% 0 mm 281 W/m2
14:09 -3.2 °C -17 °C 1024.9 hPa NW 11.3 km/h 38.6 km/h 33.6% 0 mm 207 W/m2
14:14 -3.2 °C -16.8 °C 1024.9 hPa NW 10.3 km/h 38.6 km/h 34% 0 mm 399 W/m2
14:19 -3.1 °C -16.4 °C 1025.3 hPa NNW 10.8 km/h 38.6 km/h 35% 0 mm 366 W/m2
14:24 -3.1 °C -16.7 °C 1025.3 hPa NW 18.8 km/h 38.6 km/h 34.1% 0 mm 223 W/m2
14:29 -3.2 °C -17.1 °C 1025.3 hPa NW 21.4 km/h 38.6 km/h 33.2% 0 mm 141 W/m2
14:34 -3.4 °C -17.1 °C 1025.3 hPa NW 16.3 km/h 38.6 km/h 33.8% 0 mm 130 W/m2
14:39 -3.5 °C -17.1 °C 1025.3 hPa NW 10.5 km/h 30.6 km/h 34% 0 mm 84 W/m2
14:44 -3.6 °C -17 °C 1025.3 hPa WNW 12.4 km/h 30.6 km/h 34.5% 0 mm 142 W/m2
14:49 -3.6 °C -17 °C 1025.3 hPa WNW 16.4 km/h 30.6 km/h 34.5% 0 mm 214 W/m2
14:54 -3.6 °C -16.9 °C 1025.3 hPa WNW 13 km/h 30.6 km/h 34.9% 0 mm 257 W/m2
14:59 -3.7 °C -16.8 °C 1026 hPa NW 16.1 km/h 33.8 km/h 35.3% 0 mm 239 W/m2
15:04 -3.7 °C -16.8 °C 1025.6 hPa NW 10.3 km/h 33.8 km/h 35.3% 0 mm 32 W/m2
15:09 -3.7 °C -16.9 °C 1026 hPa NW 17.5 km/h 35.4 km/h 35.1% 0 mm 30 W/m2
15:14 -3.8 °C -16.9 °C 1025.6 hPa WNW 13.8 km/h 35.4 km/h 35.2% 0 mm 30 W/m2
15:19 -3.8 °C -16.7 °C 1026 hPa NW 12.1 km/h 35.4 km/h 36% 0 mm 30 W/m2
15:24 -3.8 °C -16.7 °C 1026 hPa WNW 11.9 km/h 35.4 km/h 36.2% 0 mm 28 W/m2
15:29 -3.9 °C -16.4 °C 1026 hPa NW 9.3 km/h 35.4 km/h 37% 0 mm 26 W/m2
15:34 -3.9 °C -16.4 °C 1026.3 hPa NW 13 km/h 35.4 km/h 37% 0 mm 26 W/m2
15:39 -4 °C -16.6 °C 1026.3 hPa NW 12.4 km/h 25.7 km/h 37% 0 mm 25 W/m2
15:44 -4.1 °C -16.6 °C 1026.6 hPa WNW 11.6 km/h 27.4 km/h 37% 0 mm 25 W/m2
15:49 -4.1 °C -16.6 °C 1026.3 hPa NNW 10.1 km/h 27.4 km/h 37% 0 mm 23 W/m2
15:54 -4.2 °C -16.7 °C 1026.3 hPa NW 7.9 km/h 27.4 km/h 37.2% 0 mm 23 W/m2
15:59 -4.3 °C -16.6 °C 1026.3 hPa NW 5.3 km/h 27.4 km/h 37.5% 0 mm 21 W/m2
16:00 -4.3 °C -16.4 °C 1026.3 hPa NW 1.6 km/h 27.4 km/h 38% 0 mm 19 W/m2
16:09 -4.4 °C -16.4 °C 1026.6 hPa NNW 6 km/h 20.9 km/h 38.5% 0 mm 19 W/m2
16:13 -4.4 °C -16.6 °C 1026.6 hPa NW 8 km/h 20.9 km/h 38% 0 mm 18 W/m2
16:19 -4.6 °C -16.4 °C 1026.6 hPa NW 6.6 km/h 20.9 km/h 38.9% 0 mm 18 W/m2
16:24 -4.7 °C -16.6 °C 1026.6 hPa NW 13.8 km/h 29 km/h 38.6% 0 mm 16 W/m2
16:29 -4.7 °C -16.7 °C 1026.6 hPa NW 9.2 km/h 29 km/h 38.5% 0 mm 14 W/m2
16:34 -4.7 °C -16.5 °C 1026.6 hPa NW 5 km/h 29 km/h 39.2% 0 mm 12 W/m2
16:39 -4.8 °C -16.5 °C 1027 hPa WNW 10.1 km/h 22.5 km/h 39.5% 0 mm 11 W/m2
16:44 -4.9 °C -16.7 °C 1027 hPa NW 9.2 km/h 22.5 km/h 39% 0 mm 9 W/m2
16:49 -5 °C -16.8 °C 1027 hPa WNW 4.8 km/h 22.5 km/h 39.1% 0 mm 7 W/m2
16:54 -5.1 °C -16.6 °C 1027.3 hPa NW 5.8 km/h 22.5 km/h 40% 0 mm 5 W/m2
16:59 -5.1 °C -16.6 °C 1027.3 hPa WNW 8.2 km/h 22.5 km/h 40% 0 mm 0 W/m2
17:04 -5.2 °C -16.7 °C 1027.3 hPa NW 8.2 km/h 22.5 km/h 40% 0 mm 0 W/m2
17:09 -5.3 °C -16.5 °C 1027.3 hPa NW 9.8 km/h 24.1 km/h 41% 0 mm 0 W/m2
17:14 -5.4 °C -16.6 °C 1027.3 hPa NW 10.1 km/h 24.1 km/h 40.8% 0 mm 0 W/m2
17:19 -5.5 °C -16.7 °C 1027.3 hPa NW 6.3 km/h 24.1 km/h 41% 0 mm 0 W/m2
17:24 -5.6 °C -16.7 °C 1027.7 hPa NW 8.9 km/h 24.1 km/h 41% 0 mm 0 W/m2
17:29 -5.6 °C -16.6 °C 1027.7 hPa NW 5.8 km/h 24.1 km/h 41.6% 0 mm 0 W/m2
17:34 -5.7 °C -16.5 °C 1028 hPa NW 3.5 km/h 24.1 km/h 42% 0 mm 0 W/m2
17:39 -5.7 °C -16.4 °C 1028 hPa NNW 4.2 km/h 17.7 km/h 42.5% 0 mm 0 W/m2
17:44 -5.8 °C -16.3 °C 1028.3 hPa NW 5.6 km/h 19.3 km/h 43% 0 mm 0 W/m2
17:49 -5.8 °C -16.4 °C 1028.3 hPa NW 5.5 km/h 19.3 km/h 43% 0 mm 0 W/m2
17:54 -5.9 °C -16.4 °C 1028.7 hPa NW 4.7 km/h 19.3 km/h 43% 0 mm 0 W/m2
17:59 -5.9 °C -16.4 °C 1028.7 hPa NW 5.1 km/h 19.3 km/h 43.5% 0 mm 0 W/m2
18:04 -5.9 °C -16.2 °C 1028.7 hPa WNW 5.8 km/h 19.3 km/h 44% 0 mm 0 W/m2
18:09 -6 °C -16.3 °C 1028.7 hPa WNW 1.8 km/h 14.5 km/h 44% 0 mm 0 W/m2
18:14 -6.1 °C -16.3 °C 1028.7 hPa WNW 0.3 km/h 14.5 km/h 44% 0 mm 0 W/m2
18:19 -6.2 °C -16.3 °C 1029 hPa Calm   14.5 km/h 44.3% 0 mm 0 W/m2
18:24 -6.2 °C -16.1 °C 1029 hPa WNW 0.2 km/h 14.5 km/h 45.4% 0 mm 0 W/m2
18:29 -6.3 °C -16.1 °C 1029 hPa WNW 0.2 km/h 14.5 km/h 45.8% 0 mm 0 W/m2
18:34 -6.4 °C -16.1 °C 1029 hPa Calm   14.5 km/h 46% 0 mm 0 W/m2
18:39 -6.5 °C -16.2 °C 1029.3 hPa Calm     46% 0 mm 0 W/m2
18:44 -6.6 °C -16.2 °C 1029.3 hPa WNW 0.3 km/h 1.6 km/h 46.4% 0 mm 0 W/m2
18:49 -6.7 °C -16.1 °C 1029.3 hPa WNW 0.2 km/h 1.6 km/h 47% 0 mm 0 W/m2
18:54 -6.8 °C -16 °C 1029.3 hPa Calm   1.6 km/h 47.8% 0 mm 0 W/m2
18:59 -6.9 °C -16.1 °C 1029.3 hPa WNW 0.8 km/h 6.4 km/h 48% 0 mm 0 W/m2
19:04 -6.9 °C -15.9 °C 1029.7 hPa WNW 0.6 km/h 9.7 km/h 48.9% 0 mm 0 W/m2
19:09 -7.1 °C -15.9 °C 1029.7 hPa WNW 0.3 km/h 9.7 km/h 49% 0 mm 0 W/m2
19:14 -7.1 °C -15.9 °C 1029.7 hPa WNW 4.2 km/h 9.7 km/h 49.4% 0 mm 0 W/m2
19:19 -7.2 °C -15.9 °C 1029.7 hPa WNW 2.3 km/h 9.7 km/h 49.7% 0 mm 0 W/m2
19:24 -7.2 °C -15.8 °C 1029.7 hPa WNW 4.8 km/h 14.5 km/h 50% 0 mm 0 W/m2
19:29 -7.2 °C -15.8 °C 1030 hPa WNW 2.1 km/h 14.5 km/h 50% 0 mm 0 W/m2
19:34 -7.2 °C -15.8 °C 1030 hPa WNW 1.9 km/h 14.5 km/h 50% 0 mm 0 W/m2
19:39 -7.2 °C -15.9 °C 1030 hPa WNW 2.4 km/h 11.3 km/h 50% 0 mm 0 W/m2
19:44 -7.2 °C -15.9 °C 1030 hPa WNW 2.1 km/h 11.3 km/h 49.7% 0 mm 0 W/m2
19:49 -7.2 °C -15.9 °C 1030 hPa NW 1 km/h 11.3 km/h 50% 0 mm 0 W/m2
19:54 -7.3 °C -15.9 °C 1030 hPa NW 1.4 km/h 11.3 km/h 50% 0 mm 0 W/m2
19:59 -7.3 °C -15.9 °C 1030 hPa NW 0.8 km/h 11.3 km/h 50% 0 mm 0 W/m2
20:09 -7.4 °C -16 °C 1030.4 hPa Calm     50.3% 0 mm 0 W/m2
20:14 -7.5 °C -15.9 °C 1030.4 hPa Calm   1.6 km/h 51% 0 mm 0 W/m2
20:19 -7.6 °C -15.9 °C 1030.4 hPa Calm   1.6 km/h 51% 0 mm 0 W/m2
20:24 -7.6 °C -15.8 °C 1030.4 hPa Calm   1.6 km/h 51.8% 0 mm 0 W/m2
20:29 -7.7 °C -15.8 °C 1030.4 hPa Calm   1.6 km/h 52% 0 mm 0 W/m2
20:34 -7.8 °C -15.7 °C 1030.4 hPa Calm   1.6 km/h 52.8% 0 mm 0 W/m2
20:39 -7.9 °C -15.8 °C 1030.4 hPa Calm     53% 0 mm 0 W/m2
20:44 -8 °C -15.8 °C 1030.4 hPa NW 0.2 km/h 3.2 km/h 53.3% 0 mm 0 W/m2
20:49 -8.1 °C -15.7 °C 1030.7 hPa WNW 2.9 km/h 14.5 km/h 54.5% 0 mm 0 W/m2
20:54 -8.2 °C -15.7 °C 1030.7 hPa WNW 2.4 km/h 14.5 km/h 55% 0 mm 0 W/m2
20:59 -8.3 °C -15.7 °C 1030.7 hPa WNW 3.5 km/h 14.5 km/h 54.8% 0 mm 0 W/m2
21:04 -8.3 °C -15.9 °C 1030.7 hPa WNW 0.6 km/h 14.5 km/h 54.1% 0 mm 0 W/m2
21:09 -8.2 °C -15.9 °C 1030.7 hPa WNW 0.5 km/h 6.4 km/h 54% 0 mm 0 W/m2
21:14 -8.2 °C -15.9 °C 1030.7 hPa WNW 0.5 km/h 6.4 km/h 54% 0 mm 0 W/m2
21:19 -8.2 °C -15.9 °C 1030.7 hPa WNW 0.6 km/h 9.7 km/h 54% 0 mm 0 W/m2
21:24 -8.3 °C -15.9 °C 1030.4 hPa Calm   9.7 km/h 54% 0 mm 0 W/m2
21:29 -8.3 °C -15.9 °C 1030.4 hPa Calm   9.7 km/h 54% 0 mm 0 W/m2
21:34 -8.3 °C -15.9 °C 1030.4 hPa Calm   9.7 km/h 54.5% 0 mm 0 W/m2
21:39 -8.4 °C -15.8 °C 1030.7 hPa Calm   1.6 km/h 55% 0 mm 0 W/m2
21:44 -8.5 °C -15.9 °C 1030.7 hPa WNW 0.2 km/h 3.2 km/h 55% 0 mm 0 W/m2
21:49 -8.6 °C -15.9 °C 1030.7 hPa WNW 0.2 km/h 3.2 km/h 55% 0 mm 0 W/m2
21:54 -8.6 °C -15.9 °C 1030.7 hPa WNW 0.3 km/h 6.4 km/h 55% 0 mm 0 W/m2
21:59 -8.6 °C -16 °C 1030.7 hPa WNW 0.2 km/h 6.4 km/h 55% 0 mm 0 W/m2
22:04 -8.7 °C -16 °C 1030.7 hPa WNW 2.3 km/h 11.3 km/h 55.3% 0 mm 0 W/m2
22:09 -8.7 °C -16 °C 1031 hPa WNW 0.8 km/h 11.3 km/h 55.4% 0 mm 0 W/m2
22:14 -8.7 °C -16 °C 1031 hPa Calm   11.3 km/h 55.6% 0 mm 0 W/m2
22:19 -8.7 °C -16.1 °C 1030.7 hPa Calm   11.3 km/h 55% 0 mm 0 W/m2
22:24 -8.8 °C -15.9 °C 1031 hPa Calm   11.3 km/h 56% 0 mm 0 W/m2
22:29 -8.8 °C -16 °C 1031 hPa WNW 0.2 km/h 11.3 km/h 56% 0 mm 0 W/m2
22:34 -8.8 °C -15.9 °C 1030.7 hPa Calm   11.3 km/h 56.4% 0 mm 0 W/m2
22:39 -8.9 °C -15.9 °C 1031 hPa Calm   1.6 km/h 57% 0 mm 0 W/m2
22:44 -8.9 °C -15.9 °C 1030.7 hPa WNW 0.2 km/h 3.2 km/h 57% 0 mm 0 W/m2
22:49 -9.1 °C -16 °C 1030.7 hPa WNW 0.3 km/h 3.2 km/h 57% 0 mm 0 W/m2
22:54 -9.1 °C -15.9 °C 1030.7 hPa WNW 1.6 km/h 9.7 km/h 57.8% 0 mm 0 W/m2
22:59 -9.2 °C -15.8 °C 1031 hPa WNW 0.2 km/h 9.7 km/h 58.6% 0 mm 0 W/m2
23:00 -9.3 °C -15.8 °C 1030.7 hPa Calm   9.7 km/h 59% 0 mm 0 W/m2
23:09 -9.3 °C -15.9 °C 1030.7 hPa NW 1.9 km/h 9.7 km/h 58.5% 0 mm 0 W/m2
23:14 -9.3 °C -16.1 °C 1030.7 hPa NW 0.8 km/h 9.7 km/h 58% 0 mm 0 W/m2
23:19 -9.3 °C -16 °C 1030.7 hPa NW 4.5 km/h 9.7 km/h 58% 0 mm 0 W/m2
23:24 -9.3 °C -16.1 °C 1030.7 hPa NW 1.8 km/h 9.7 km/h 57.3% 0 mm 0 W/m2
23:29 -9.2 °C -16.2 °C 1031 hPa NW 0.8 km/h 9.7 km/h 57% 0 mm 0 W/m2
23:34 -9.2 °C -16.2 °C 1031 hPa NW 0.8 km/h 9.7 km/h 56.9% 0 mm 0 W/m2
23:39 -9.2 °C -16.4 °C 1031 hPa Calm   8 km/h 56% 0 mm 0 W/m2
23:44 -9.2 °C -16.3 °C 1031 hPa NW 0.5 km/h 8 km/h 56.3% 0 mm 0 W/m2
23:49 -9.2 °C -16.2 °C 1031 hPa NW 1.8 km/h 11.3 km/h 57% 0 mm 0 W/m2
23:54 -9.3 °C -16.2 °C 1031 hPa NW 1 km/h 11.3 km/h 57% 0 mm 0 W/m2
23:59 -9.3 °C -16.2 °C 1031 hPa NW 0.2 km/h 11.3 km/h 57% 0 mm 0 W/m2
Hartford County Weather
Compliments of Weather Underground - 2 mb